Time;durP1;ratioP1;P1;durP2;ratioP2;P2;SDS_P1;SDS_P2;PMS_P1;PMS_P2;Temp;Humidity;BMP_temperature;BMP_pressure;BME280_temperature;BME280_humidity;BME280_pressure;Samples;Min_cycle;Max_cycle;Signal;HPM_P1;HPM_P2
2022/10/26 00:01:11;;;;;;;10.67;7.43;;;;;;;12.55;100.00;100386.75;1748273;82;20980;-58
2022/10/26 00:03:38;;;;;;;11.00;8.03;;;;;;;12.58;100.00;100383.77;1750045;80;21522;-65
2022/10/26 00:06:16;;;;;;;8.40;6.30;;;;;;;12.67;100.00;100381.78;1757341;81;21299;-59
2022/10/26 00:08:44;;;;;;;9.90;7.80;;;;;;;12.70;100.00;100376.17;1757779;81;21184;-58
2022/10/26 00:11:12;;;;;;;9.80;7.97;;;;;;;12.70;100.00;100381.41;1757702;81;21073;-58
2022/10/26 00:13:40;;;;;;;11.83;9.00;;;;;;;12.68;100.00;100377.36;1757691;80;21051;-59
2022/10/26 00:16:15;;;;;;;8.73;7.17;;;;;;;12.69;100.00;100377.19;1757513;81;22028;-59
2022/10/26 00:18:44;;;;;;;8.70;7.23;;;;;;;12.75;100.00;100375.08;1719205;82;21473;-58
2022/10/26 00:21:11;;;;;;;11.37;8.17;;;;;;;12.70;100.00;100372.76;1718941;82;21065;-58
2022/10/26 00:23:41;;;;;;;9.83;7.63;;;;;;;12.75;100.00;100374.28;1718722;83;21521;-59
2022/10/26 00:26:09;;;;;;;10.60;8.37;;;;;;;12.69;100.00;100372.42;1719206;83;21510;-58
2022/10/26 00:28:37;;;;;;;11.03;7.27;;;;;;;12.68;100.00;100367.70;1718927;83;21505;-59
2022/10/26 00:31:08;;;;;;;10.20;8.23;;;;;;;12.69;100.00;100364.58;1705690;84;21815;-59
2022/10/26 00:33:35;;;;;;;9.87;7.80;;;;;;;12.75;100.00;100363.31;1717843;83;21525;-65
2022/10/26 00:36:02;;;;;;;9.43;7.20;;;;;;;12.77;100.00;100361.33;1705950;82;21367;-58
2022/10/26 00:38:30;;;;;;;10.63;8.33;;;;;;;12.77;100.00;100365.25;1719257;83;20990;-59
2022/10/26 00:40:57;;;;;;;9.87;7.67;;;;;;;12.77;100.00;100362.63;1719386;83;21004;-59
2022/10/26 00:43:30;;;;;;;11.67;8.83;;;;;;;12.74;100.00;100359.09;1719234;82;21268;-66
2022/10/26 00:45:57;;;;;;;11.33;9.20;;;;;;;12.73;100.00;100350.95;1718823;83;21456;-60
2022/10/26 00:48:28;;;;;;;12.07;8.73;;;;;;;12.75;100.00;100352.84;1719097;82;21033;-59
2022/10/26 00:50:57;;;;;;;9.67;7.97;;;;;;;12.75;100.00;100345.00;1719189;83;20983;-59
2022/10/26 00:53:25;;;;;;;9.73;7.47;;;;;;;12.77;100.00;100344.32;1718830;82;21102;-67
2022/10/26 00:55:52;;;;;;;10.63;8.07;;;;;;;12.80;100.00;100341.29;1719567;83;22190;-58
2022/10/26 00:58:19;;;;;;;11.50;9.27;;;;;;;12.81;100.00;100345.55;1719329;82;20968;-58
2022/10/26 01:00:47;;;;;;;13.67;8.23;;;;;;;12.82;100.00;100336.69;1719204;82;21073;-58
2022/10/26 01:03:14;;;;;;;10.63;7.90;;;;;;;12.83;100.00;100339.59;1719549;82;21058;-65
2022/10/26 01:05:44;;;;;;;10.00;7.57;;;;;;;12.82;100.00;100335.37;1719044;82;20884;-60
2022/10/26 01:08:12;;;;;;;8.90;7.63;;;;;;;12.82;100.00;100328.03;1719543;82;21174;-58
2022/10/26 01:10:41;;;;;;;11.83;8.30;;;;;;;12.81;100.00;100327.23;1719153;83;21430;-59
2022/10/26 01:13:10;;;;;;;11.87;9.03;;;;;;;12.79;100.00;100321.38;1719215;82;21508;-59
2022/10/26 01:16:02;;;;;;;13.17;8.93;;;;;;;12.76;100.00;100324.38;1718583;82;21564;-60
2022/10/26 01:19:00;;;;;;;10.38;8.13;;;;;;;12.76;100.00;100323.06;1719350;82;20880;-57
2022/10/26 01:21:41;;;;;;;9.53;7.50;;;;;;;12.75;100.00;100315.42;1719097;83;21107;-58
2022/10/26 01:24:44;;;;;;;10.13;7.90;;;;;;;12.74;100.00;100310.70;1719763;82;20999;-58
2022/10/26 01:27:34;;;;;;;10.03;7.40;;;;;;;12.75;100.00;100311.00;1653936;85;21520;-58
2022/10/26 01:30:26;;;;;;;11.13;7.37;;;;;;;12.82;100.00;100307.11;1715455;83;20940;-59
2022/10/26 01:33:28;;;;;;;10.80;7.28;;;;;;;12.84;100.00;100307.22;1719389;83;21000;-58
2022/10/26 01:36:24;;;;;;;10.43;7.03;;;;;;;12.86;100.00;100302.59;1719265;82;21264;-57
2022/10/26 01:39:08;;;;;;;11.03;8.23;;;;;;;12.86;100.00;100296.55;1718156;83;20948;-59
2022/10/26 01:41:47;;;;;;;9.33;6.73;;;;;;;12.88;100.00;100297.98;1719350;82;21003;-58
2022/10/26 01:44:28;;;;;;;8.97;7.70;;;;;;;12.89;100.00;100299.58;1719193;82;21580;-59
2022/10/26 01:46:57;;;;;;;8.83;7.40;;;;;;;12.90;100.00;100294.64;1719706;83;21051;-58
2022/10/26 01:49:35;;;;;;;11.03;7.50;;;;;;;12.89;100.00;100294.35;1690989;83;21364;-58
2022/10/26 01:52:03;;;;;;;9.13;7.00;;;;;;;12.88;100.00;100295.87;1690615;83;21540;-61
2022/10/26 01:54:30;;;;;;;8.33;5.87;;;;;;;12.89;100.00;100288.31;1719540;83;21054;-59
2022/10/26 01:57:01;;;;;;;8.80;7.30;;;;;;;12.97;100.00;100289.95;1690823;83;21067;-60
2022/10/26 01:59:36;;;;;;;10.40;7.67;;;;;;;12.88;100.00;100282.79;1719547;83;21067;-58
2022/10/26 02:02:25;;;;;;;9.47;7.23;;;;;;;12.92;100.00;100280.08;1718738;82;21244;-58
2022/10/26 02:05:28;;;;;;;10.17;6.53;;;;;;;12.94;100.00;100283.29;1726546;82;21481;-58
2022/10/26 02:08:17;;;;;;;;;;;;;;;12.93;100.00;100283.50;1737615;82;20931;-58
2022/10/26 02:11:10;;;;;;;9.77;7.23;;;;;;;12.87;100.00;100284.57;1734367;82;20531;-60
2022/10/26 02:13:58;;;;;;;10.93;8.20;;;;;;;12.88;100.00;100282.79;1735252;82;20935;-58
2022/10/26 02:16:39;;;;;;;10.07;7.90;;;;;;;12.92;100.00;100282.70;1734880;82;21897;-58
2022/10/26 02:19:39;;;;;;;9.38;7.28;;;;;;;12.88;100.00;100274.44;1735341;82;20942;-58
2022/10/26 02:22:16;;;;;;;10.57;7.43;;;;;;;12.85;100.00;100278.75;1719900;82;21432;-59
2022/10/26 02:24:44;;;;;;;8.87;7.90;;;;;;;12.85;100.00;100279.25;1735147;82;20939;-60
2022/10/26 02:27:16;;;;;;;7.73;6.50;;;;;;;12.85;100.00;100274.02;1735008;82;20964;-59
2022/10/26 02:29:44;;;;;;;7.67;6.60;;;;;;;12.85;100.00;100272.20;1726302;82;21212;-60
2022/10/26 02:32:11;;;;;;;9.83;6.80;;;;;;;12.88;100.00;100274.44;1703877;84;20987;-58
2022/10/26 02:34:40;;;;;;;6.70;5.50;;;;;;;12.86;100.00;100271.19;1766014;80;20943;-59
2022/10/26 02:37:07;;;;;;;9.90;6.70;;;;;;;12.85;100.00;100270.89;1766018;81;21007;-58
2022/10/26 02:39:35;;;;;;;10.13;6.27;;;;;;;12.85;100.00;100258.33;1765540;81;21087;-59
2022/10/26 02:42:05;;;;;;;8.73;6.70;;;;;;;12.86;100.00;100259.42;1766131;81;21722;-58
2022/10/26 02:44:41;;;;;;;8.07;5.87;;;;;;;12.84;100.00;100258.83;1766233;80;20924;-58
2022/10/26 02:47:10;;;;;;;9.20;6.40;;;;;;;12.83;100.00;100261.12;1765773;81;20955;-67
2022/10/26 02:49:37;;;;;;;10.13;7.93;;;;;;;12.89;100.00;100256.92;1766200;80;21059;-60
2022/10/26 02:52:12;;;;;;;9.17;7.33;;;;;;;12.86;100.00;100259.42;1765815;80;21054;-58
2022/10/26 02:55:04;;;;;;;9.07;6.00;;;;;;;12.85;100.00;100259.12;1766096;81;21568;-58
2022/10/26 02:57:38;;;;;;;7.47;6.03;;;;;;;12.83;100.00;100257.20;1765958;80;21409;-59
2022/10/26 03:00:09;;;;;;;8.40;6.83;;;;;;;12.82;100.00;100254.28;1765802;81;21035;-59
2022/10/26 03:02:38;;;;;;;7.67;5.87;;;;;;;12.82;100.00;100251.66;1765823;80;20987;-68
2022/10/26 03:05:20;;;;;;;7.93;6.70;;;;;;;12.84;100.00;100254.07;1762430;80;21521;-59
2022/10/26 03:07:48;;;;;;;7.17;5.47;;;;;;;12.85;100.00;100251.78;1758172;81;21231;-59
2022/10/26 03:10:17;;;;;;;8.37;6.60;;;;;;;12.86;100.00;100252.88;1757743;81;20940;-60
2022/10/26 03:12:45;;;;;;;7.53;5.90;;;;;;;12.90;100.00;100242.33;1757616;80;21023;-59
2022/10/26 03:15:14;;;;;;;7.33;6.10;;;;;;;12.88;100.00;100242.23;1757815;81;20948;-59
2022/10/26 03:17:42;;;;;;;9.60;6.93;;;;;;;12.91;100.00;100239.20;1757932;81;20937;-59
2022/10/26 03:20:10;;;;;;;8.53;6.93;;;;;;;12.85;100.00;100243.94;1757962;80;21143;-67
2022/10/26 03:22:37;;;;;;;7.77;5.67;;;;;;;12.95;100.00;100241.72;1757409;81;21068;-59
2022/10/26 03:25:07;;;;;;;6.50;5.57;;;;;;;13.00;100.00;100241.15;1757771;81;20940;-58
2022/10/26 03:27:34;;;;;;;7.33;6.33;;;;;;;13.00;100.00;100238.03;1757954;80;21030;-59
2022/10/26 03:30:02;;;;;;;6.87;5.77;;;;;;;12.97;100.00;100224.53;1757428;81;20940;-67
2022/10/26 03:32:30;;;;;;;7.20;5.83;;;;;;;13.01;100.00;100220.51;1757426;81;21004;-59
2022/10/26 03:34:57;;;;;;;8.73;6.10;;;;;;;13.00;100.00;100214.48;1718941;82;20947;-59
2022/10/26 03:37:25;;;;;;;7.37;5.10;;;;;;;12.94;100.00;100210.53;1718953;82;21090;-59
2022/10/26 03:39:52;;;;;;;8.20;6.30;;;;;;;12.93;100.00;100210.24;1719024;82;21543;-59
2022/10/26 03:42:19;;;;;;;7.87;5.90;;;;;;;12.90;100.00;100210.13;1718261;82;20935;-59
2022/10/26 03:44:48;;;;;;;7.53;5.57;;;;;;;12.88;100.00;100207.72;1718999;82;44086;-59
2022/10/26 03:47:15;;;;;;;7.13;6.27;;;;;;;12.87;100.00;100210.52;1719226;83;20967;-59
2022/10/26 03:49:42;;;;;;;7.23;5.83;;;;;;;12.87;100.00;100206.59;1718873;82;21078;-59
2022/10/26 03:52:11;;;;;;;8.77;6.63;;;;;;;12.85;100.00;100206.00;1718285;83;20987;-60
2022/10/26 03:54:39;;;;;;;8.93;6.80;;;;;;;12.86;100.00;100208.41;1719302;82;20999;-60
2022/10/26 03:57:06;;;;;;;7.80;6.23;;;;;;;12.84;100.00;100202.59;1719077;82;21214;-61
2022/10/26 03:59:33;;;;;;;8.43;6.50;;;;;;;12.84;100.00;100207.81;1719199;82;20947;-59
2022/10/26 04:02:00;;;;;;;8.60;6.40;;;;;;;12.88;100.00;100212.95;1718171;82;20972;-61
2022/10/26 04:04:27;;;;;;;7.90;6.20;;;;;;;12.91;100.00;100213.04;1718908;82;21105;-61
2022/10/26 04:06:54;;;;;;;7.80;5.60;;;;;;;12.85;100.00;100207.31;1734717;81;21081;-61
2022/10/26 04:09:22;;;;;;;7.43;5.37;;;;;;;12.88;100.00;100214.27;1734693;82;21201;-60
2022/10/26 04:11:49;;;;;;;6.67;5.63;;;;;;;12.85;100.00;100208.11;1734933;82;20923;-60
2022/10/26 04:14:18;;;;;;;7.77;5.80;;;;;;;12.86;100.00;100216.25;1734496;81;20974;-61
2022/10/26 04:16:45;;;;;;;9.43;6.10;;;;;;;12.86;100.00;100211.53;1734999;82;21111;-60
2022/10/26 04:19:15;;;;;;;8.03;6.30;;;;;;;12.91;100.00;100205.99;1734966;82;21069;-61
2022/10/26 04:21:44;;;;;;;8.20;6.10;;;;;;;12.95;100.00;100201.16;1735186;81;21266;-60
2022/10/26 04:24:11;;;;;;;7.83;6.43;;;;;;;12.93;100.00;100209.73;1735010;82;20860;-67
2022/10/26 04:26:39;;;;;;;8.23;6.70;;;;;;;12.94;100.00;100204.00;1734668;82;20987;-62
2022/10/26 04:29:08;;;;;;;8.03;6.53;;;;;;;12.88;100.00;100202.48;1735365;81;20904;-60
2022/10/26 04:31:35;;;;;;;10.00;6.60;;;;;;;12.86;100.00;100203.17;1735443;81;21524;-60
2022/10/26 04:34:02;;;;;;;8.57;6.47;;;;;;;12.84;100.00;100197.35;1734734;81;21146;-60
2022/10/26 04:36:30;;;;;;;8.47;5.83;;;;;;;12.82;100.00;100196.73;1734567;82;21005;-61
2022/10/26 04:38:58;;;;;;;9.10;7.07;;;;;;;12.85;100.00;100195.54;1766138;80;20991;-60
2022/10/26 04:41:25;;;;;;;8.83;6.33;;;;;;;12.84;100.00;100191.29;1766394;81;21063;-61
2022/10/26 04:43:53;;;;;;;10.23;7.90;;;;;;;12.83;100.00;100193.61;1766372;81;20933;-59
2022/10/26 04:46:20;;;;;;;9.17;6.73;;;;;;;12.84;100.00;100189.51;1766278;81;21149;-61
2022/10/26 04:48:47;;;;;;;8.37;6.60;;;;;;;12.84;100.00;100189.51;1765506;81;21081;-59
2022/10/26 04:51:15;;;;;;;7.80;5.80;;;;;;;12.87;100.00;100189.59;1766489;81;21041;-59
2022/10/26 04:53:42;;;;;;;8.43;6.40;;;;;;;12.82;100.00;100186.27;1766493;81;20968;-61
2022/10/26 04:56:09;;;;;;;9.87;6.90;;;;;;;12.84;100.00;100188.20;1766148;81;21012;-60
2022/10/26 04:58:36;;;;;;;8.23;6.53;;;;;;;12.85;100.00;100189.80;1765372;80;21599;-61
2022/10/26 05:01:04;;;;;;;10.37;6.70;;;;;;;12.88;100.00;100182.06;1766029;81;21419;-60
2022/10/26 05:03:33;;;;;;;10.00;6.97;;;;;;;12.90;100.00;100178.73;1766149;81;21074;-60
2022/10/26 05:06:00;;;;;;;8.73;6.93;;;;;;;12.93;100.00;100184.88;1761663;81;20988;-61
2022/10/26 05:08:30;;;;;;;8.60;6.30;;;;;;;12.92;100.00;100184.58;1719348;82;21070;-63
2022/10/26 05:10:58;;;;;;;8.87;6.43;;;;;;;12.90;100.00;100186.08;1718897;83;22224;-62
2022/10/26 05:13:25;;;;;;;9.50;7.00;;;;;;;12.90;100.00;100187.89;1719115;83;20999;-60
2022/10/26 05:15:53;;;;;;;9.50;6.93;;;;;;;12.87;100.00;100186.47;1719039;82;20985;-61
2022/10/26 05:18:21;;;;;;;8.60;6.50;;;;;;;12.90;100.00;100188.69;1719349;83;21070;-60
2022/10/26 05:20:51;;;;;;;8.43;6.80;;;;;;;12.91;100.00;100188.98;1705517;84;21137;-62
2022/10/26 05:23:18;;;;;;;8.23;6.43;;;;;;;12.95;100.00;100185.97;1678566;84;21462;-60
2022/10/26 05:25:47;;;;;;;8.27;6.87;;;;;;;12.97;100.00;100182.67;1719152;83;20971;-61
2022/10/26 05:28:15;;;;;;;10.00;7.57;;;;;;;12.98;100.00;100181.66;1719137;83;20944;-61
2022/10/26 05:30:44;;;;;;;8.40;6.73;;;;;;;12.98;100.00;100186.38;1718799;83;21027;-61
2022/10/26 05:33:12;;;;;;;9.83;8.27;;;;;;;12.99;100.00;100187.98;1719445;83;21042;-60
2022/10/26 05:35:39;;;;;;;8.03;6.30;;;;;;;13.00;100.00;100187.51;1719099;83;21294;-60
2022/10/26 05:38:10;;;;;;;9.60;6.43;;;;;;;12.99;100.00;100184.06;1718943;82;20947;-60
2022/10/26 05:40:37;;;;;;;10.00;7.30;;;;;;;13.02;100.00;100188.90;1718772;82;21549;-61
2022/10/26 05:43:04;;;;;;;9.37;7.60;;;;;;;13.08;100.00;100184.69;1719167;82;21031;-60
2022/10/26 05:45:32;;;;;;;9.57;7.00;;;;;;;13.11;100.00;100184.30;1719239;82;20924;-60
2022/10/26 05:47:59;;;;;;;8.87;7.20;;;;;;;13.12;100.00;100188.52;1719184;83;21255;-60
2022/10/26 05:50:26;;;;;;;10.23;7.13;;;;;;;13.15;100.00;100185.50;1718495;82;20979;-62
2022/10/26 05:52:55;;;;;;;8.70;6.87;;;;;;;13.20;100.00;100179.14;1719347;82;22066;-59
2022/10/26 05:55:23;;;;;;;10.37;7.87;;;;;;;13.19;100.00;100176.74;1719043;83;21015;-59
2022/10/26 05:57:53;;;;;;;9.17;6.87;;;;;;;13.15;100.00;100171.91;1719013;82;20940;-60
2022/10/26 06:00:23;;;;;;;8.57;6.37;;;;;;;13.15;100.00;100173.22;1718489;83;21126;-60
2022/10/26 06:03:22;;;;;;;9.80;7.53;;;;;;;13.23;100.00;100164.38;1718903;83;21006;-59
2022/10/26 06:05:55;;;;;;;8.50;6.90;;;;;;;13.28;100.00;100172.42;1655132;83;21019;-65
2022/10/26 06:08:27;;;;;;;8.43;6.73;;;;;;;13.25;100.00;100163.66;1719352;83;20991;-60
2022/10/26 06:10:55;;;;;;;7.70;6.57;;;;;;;13.25;100.00;100166.28;1719234;82;20968;-59
2022/10/26 06:13:24;;;;;;;9.37;7.70;;;;;;;13.29;100.00;100157.52;1719203;82;20987;-61
2022/10/26 06:16:05;;;;;;;10.53;7.83;;;;;;;13.22;100.00;100154.90;1719089;83;21533;-60
2022/10/26 06:19:07;;;;;;;10.08;7.33;;;;;;;13.22;100.00;100153.59;1719099;83;28554;-59
2022/10/26 06:22:16;;;;;;;11.00;7.17;;;;;;;13.28;100.00;100155.41;1719067;82;21030;-59
2022/10/26 06:25:22;;;;;;;10.37;8.63;;;;;;;13.33;100.00;100146.46;1718639;83;20947;-61
2022/10/26 06:27:55;;;;;;;10.23;7.67;;;;;;;13.26;100.00;100148.28;1718970;83;21263;-65
2022/10/26 06:30:23;;;;;;;8.67;6.90;;;;;;;13.29;100.00;100149.16;1719252;83;21086;-61
2022/10/26 06:32:52;;;;;;;9.57;7.57;;;;;;;13.36;100.00;100144.72;1719260;82;20935;-60
2022/10/26 06:35:44;;;;;;;9.20;7.30;;;;;;;13.42;100.00;100142.31;1719124;82;20972;-60
2022/10/26 06:38:18;;;;;;;8.70;6.85;;;;;;;13.37;100.00;100142.42;1719325;82;21474;-59
2022/10/26 06:40:48;;;;;;;9.63;7.87;;;;;;;13.38;100.00;100134.86;1719091;83;21239;-59
2022/10/26 06:43:28;;;;;;;9.97;7.83;;;;;;;13.39;100.00;100131.23;1718337;83;21031;-59
2022/10/26 06:46:27;;;;;;;9.60;7.80;;;;;;;13.38;100.00;100130.94;1719063;83;21567;-59
2022/10/26 06:49:14;;;;;;;10.63;8.33;;;;;;;13.38;100.00;100132.25;1718750;82;21340;-59
2022/10/26 06:51:50;;;;;;;10.60;7.93;;;;;;;13.37;100.00;100131.95;1719304;83;20988;-59
2022/10/26 06:54:42;;;;;;;9.30;7.60;;;;;;;13.41;100.00;100131.04;1705085;84;21192;-60
2022/10/26 06:57:10;;;;;;;9.77;8.27;;;;;;;13.39;100.00;100123.38;1718984;83;21579;-59
2022/10/26 06:59:54;;;;;;;9.80;8.03;;;;;;;13.39;100.00;100123.38;1719194;83;21110;-66
2022/10/26 07:02:22;;;;;;;10.53;7.60;;;;;;;13.35;100.00;100122.17;1718926;83;21004;-60
2022/10/26 07:04:49;;;;;;;9.70;7.53;;;;;;;13.42;100.00;100123.98;1719580;82;20940;-60
2022/10/26 07:07:20;;;;;;;8.33;6.77;;;;;;;13.46;100.00;100121.26;1731449;82;21163;-59
2022/10/26 07:09:49;;;;;;;9.90;7.28;;;;;;;13.53;100.00;100119.44;1733895;82;20991;-60
2022/10/26 07:12:16;;;;;;;9.20;7.37;;;;;;;13.54;100.00;100119.22;1735013;82;21041;-60
2022/10/26 07:14:45;;;;;;;8.53;7.10;;;;;;;13.52;100.00;100117.30;1734843;82;21615;-60
2022/10/26 07:17:14;;;;;;;9.63;7.37;;;;;;;13.50;100.00;100111.98;1734866;82;21012;-60
2022/10/26 07:19:43;;;;;;;8.67;6.57;;;;;;;13.49;100.00;100094.16;1734276;82;22045;-65
2022/10/26 07:22:11;;;;;;;8.33;6.90;;;;;;;13.50;100.00;100114.09;1765924;81;21435;-60
2022/10/26 07:24:41;;;;;;;8.30;6.37;;;;;;;13.51;100.00;100110.97;1766114;81;20963;-60
2022/10/26 07:27:08;;;;;;;7.30;5.97;;;;;;;13.56;100.00;100108.04;1766303;81;21507;-60
2022/10/26 07:29:36;;;;;;;7.17;5.67;;;;;;;13.55;100.00;100095.94;1766104;81;21019;-63
2022/10/26 07:32:04;;;;;;;8.67;6.03;;;;;;;13.61;100.00;100097.73;1765786;81;21374;-60
2022/10/26 07:34:31;;;;;;;7.17;5.53;;;;;;;13.62;100.00;100095.41;1766241;81;21493;-59
2022/10/26 07:36:59;;;;;;;9.40;6.37;;;;;;;13.63;100.00;100092.28;1765774;80;21008;-60
2022/10/26 07:39:26;;;;;;;8.70;5.93;;;;;;;13.57;100.00;100087.89;1766052;81;21521;-63
2022/10/26 07:41:56;;;;;;;9.77;5.87;;;;;;;13.60;100.00;100084.86;1766151;81;21039;-60
2022/10/26 07:44:24;;;;;;;6.50;4.60;;;;;;;13.62;100.00;100084.14;1765927;80;21301;-61
2022/10/26 07:46:52;;;;;;;7.17;5.03;;;;;;;13.62;100.00;100080.20;1766228;80;20989;-60
2022/10/26 07:49:19;;;;;;;7.13;5.17;;;;;;;13.61;100.00;100072.06;1765696;80;20984;-67
2022/10/26 07:51:46;;;;;;;6.97;5.50;;;;;;;13.60;100.00;100077.01;1765984;81;21048;-60
2022/10/26 07:54:14;;;;;;;8.93;5.60;;;;;;;13.58;100.00;100072.47;1766217;81;20960;-60
2022/10/26 07:56:41;;;;;;;6.23;4.80;;;;;;;13.52;100.00;100076.70;1766152;81;21256;-60
2022/10/26 07:59:12;;;;;;;6.20;4.87;;;;;;;13.53;100.00;100072.30;1765883;80;21118;-61
2022/10/26 08:01:39;;;;;;;8.55;5.80;;;;;;;13.50;100.00;100073.50;1766254;81;21082;-60
2022/10/26 08:04:06;;;;;;;8.13;5.33;;;;;;;13.47;100.00;100067.87;1766070;81;21071;-59
2022/10/26 08:06:34;;;;;;;7.57;5.33;;;;;;;13.49;100.00;100059.32;1763117;81;20968;-60
2022/10/26 08:09:02;;;;;;;7.47;5.27;;;;;;;13.52;100.00;100070.16;1718798;82;22128;-61
2022/10/26 08:11:29;;;;;;;7.17;5.30;;;;;;;13.54;100.00;100066.04;1719206;83;21014;-60
2022/10/26 08:13:57;;;;;;;7.47;5.03;;;;;;;13.48;100.00;100066.85;1718853;83;21895;-59
2022/10/26 08:16:24;;;;;;;7.70;5.73;;;;;;;13.47;100.00;100063.95;1718853;82;21003;-60
2022/10/26 08:18:53;;;;;;;7.10;4.90;;;;;;;13.41;100.00;100059.05;1719294;83;20944;-67
2022/10/26 08:21:20;;;;;;;7.23;5.70;;;;;;;13.45;100.00;100058.09;1718741;82;22259;-60
2022/10/26 08:23:48;;;;;;;6.73;5.20;;;;;;;13.45;100.00;100057.61;1719100;83;21073;-60
2022/10/26 08:26:17;;;;;;;8.13;5.70;;;;;;;13.43;100.00;100056.20;1718924;82;21014;-60
2022/10/26 08:28:47;;;;;;;7.53;5.30;;;;;;;13.47;100.00;100054.78;1719088;83;20959;-60
2022/10/26 08:31:14;;;;;;;6.50;4.77;;;;;;;13.46;100.00;100046.63;1705142;84;20995;-61
2022/10/26 08:33:42;;;;;;;7.03;5.43;;;;;;;13.45;100.00;100051.55;1718634;83;22341;-60
2022/10/26 08:36:10;;;;;;;6.93;5.17;;;;;;;13.43;100.00;100049.66;1718724;83;21453;-61
2022/10/26 08:38:37;;;;;;;9.47;6.50;;;;;;;13.41;100.00;100052.49;1718942;82;20952;-61
2022/10/26 08:41:10;;;;;;;8.93;6.67;;;;;;;13.40;100.00;100061.34;1718972;83;21019;-67
2022/10/26 08:43:48;;;;;;;13.13;10.33;;;;;;;13.38;100.00;100052.39;1719035;82;21055;-61
2022/10/26 08:46:21;;;;;;;10.03;7.77;;;;;;;13.37;100.00;100052.10;1718969;83;21227;-60
2022/10/26 08:49:02;;;;;;;12.07;8.70;;;;;;;13.41;100.00;100051.19;1719285;83;21527;-61
2022/10/26 08:51:37;;;;;;;8.38;6.83;;;;;;;13.41;100.00;100050.36;1716726;83;21565;-61
2022/10/26 08:54:05;;;;;;;7.53;5.90;;;;;;;13.42;100.00;100055.91;1718327;83;21070;-60
2022/10/26 08:56:38;;;;;;;9.53;7.27;;;;;;;13.40;100.00;100049.55;1719252;83;21046;-61
2022/10/26 08:59:25;;;;;;;7.83;5.07;;;;;;;13.49;100.00;100047.53;1718780;82;21799;-61
2022/10/26 09:01:52;;;;;;;5.73;4.47;;;;;;;13.42;100.00;100045.44;1719044;83;21046;-61
2022/10/26 09:04:23;;;;;;;5.90;4.60;;;;;;;13.41;100.00;100039.41;1719524;83;21081;-60
2022/10/26 09:07:11;;;;;;;5.67;4.22;;;;;;;13.45;100.00;100036.67;1718675;82;21446;-61
2022/10/26 09:10:08;;;;;;;8.83;6.53;;;;;;;13.52;100.00;100032.69;1719085;82;21000;-60
2022/10/26 09:13:13;;;;;;;6.67;5.40;;;;;;;13.53;100.00;100035.12;1718899;82;21162;-60
2022/10/26 09:16:06;;;;;;;7.07;6.17;;;;;;;13.50;100.00;100037.35;1718850;83;20946;-60
2022/10/26 09:18:41;;;;;;;6.40;4.63;;;;;;;13.66;100.00;100027.70;1719492;82;20951;-59
2022/10/26 09:21:35;;;;;;;6.87;4.90;;;;;;;13.65;100.00;100024.80;1718780;82;20908;-61
2022/10/26 09:24:25;;;;;;;6.93;4.17;;;;;;;13.73;100.00;100023.75;1719271;82;21044;-59
2022/10/26 09:27:22;;;;;;;6.42;4.67;;;;;;;13.79;100.00;100021.11;1679894;83;21167;-59
2022/10/26 09:29:49;;;;;;;7.67;6.03;;;;;;;13.84;100.00;100019.16;1718758;82;21055;-59
2022/10/26 09:32:19;;;;;;;7.37;5.07;;;;;;;13.85;100.00;100023.37;1719329;82;21455;-60
2022/10/26 09:34:59;;;;;;;7.83;6.03;;;;;;;13.83;100.00;100020.18;1719491;82;21114;-60
2022/10/26 09:37:29;;;;;;;9.83;6.73;;;;;;;13.81;100.00;100016.45;1719040;82;21433;-62
2022/10/26 09:40:14;;;;;;;9.18;6.95;;;;;;;13.86;100.00;100016.64;1719419;83;21379;-60
2022/10/26 09:42:45;;;;;;;5.67;4.63;;;;;;;13.90;100.00;100012.27;1719232;82;20920;-60
2022/10/26 09:45:24;;;;;;;7.95;5.25;;;;;;;13.91;100.00;100010.76;1719269;83;21439;-61
2022/10/26 09:47:52;;;;;;;7.23;5.57;;;;;;;13.88;100.00;100005.42;1719157;82;20971;-60
2022/10/26 09:50:30;;;;;;;7.43;5.00;;;;;;;13.92;100.00;99996.64;1719424;82;21036;-60
2022/10/26 09:52:57;;;;;;;6.07;4.87;;;;;;;13.93;100.00;99997.44;1719193;82;21130;-68
2022/10/26 09:55:24;;;;;;;7.23;4.57;;;;;;;13.98;100.00;99997.11;1718571;83;21412;-61
2022/10/26 09:58:02;;;;;;;7.07;5.43;;;;;;;13.98;100.00;99993.19;1718885;82;20963;-60
2022/10/26 10:00:30;;;;;;;7.37;4.53;;;;;;;13.95;100.00;99998.84;1691520;83;21053;-61
2022/10/26 10:02:58;;;;;;;7.43;4.40;;;;;;;13.93;100.00;99986.95;1668199;83;21035;-60
2022/10/26 10:05:31;;;;;;;5.60;3.50;;;;;;;13.87;100.00;99985.48;1718821;83;21595;-61
2022/10/26 10:08:22;;;;;;;7.97;5.30;;;;;;;13.87;100.00;99986.00;1719008;82;21003;-62
2022/10/26 10:11:00;;;;;;;7.65;4.95;;;;;;;13.87;100.00;99980.76;1719097;83;20972;-65
2022/10/26 10:13:33;;;;;;;5.60;3.73;;;;;;;13.85;100.00;99986.19;1719916;83;21482;-63
2022/10/26 10:16:21;;;;;;;5.97;3.33;;;;;;;13.79;100.00;99979.70;1719313;82;21398;-62
2022/10/26 10:18:58;;;;;;;5.97;3.43;;;;;;;13.73;100.00;99974.78;1719216;82;21677;-61
2022/10/26 10:21:48;;;;;;;4.20;2.90;;;;;;;13.79;100.00;99974.46;1718736;83;20943;-61
2022/10/26 10:24:30;;;;;;;4.90;3.20;;;;;;;13.76;100.00;99975.67;1705572;84;20975;-62
2022/10/26 10:27:03;;;;;;;5.13;2.90;;;;;;;13.67;100.00;99980.84;1705608;82;21031;-62
2022/10/26 10:29:36;;;;;;;5.57;3.00;;;;;;;13.66;100.00;99964.84;1719082;83;20933;-63
2022/10/26 10:32:05;;;;;;;5.50;2.40;;;;;;;13.59;100.00;99974.55;1719045;83;21869;-60
2022/10/26 10:34:34;;;;;;;4.27;2.67;;;;;;;13.52;100.00;99967.23;1719468;83;21517;-62
2022/10/26 10:37:01;;;;;;;3.30;2.03;;;;;;;13.45;100.00;99962.53;1719389;83;21437;-61
2022/10/26 10:39:38;;;;;;;4.60;2.43;;;;;;;13.44;100.00;99971.40;1718973;83;20988;-60
2022/10/26 10:42:19;;;;;;;4.40;2.80;;;;;;;13.42;100.00;99961.15;1719245;82;21022;-61
2022/10/26 10:44:46;;;;;;;4.47;2.52;;;;;;;13.44;100.00;99965.66;1719385;83;21183;-61
2022/10/26 10:47:29;;;;;;;6.03;3.27;;;;;;;13.46;100.00;99961.53;1677998;84;20939;-60
2022/10/26 10:50:07;;;;;;;4.97;3.37;;;;;;;13.47;100.00;99960.01;1705998;84;22378;-60
2022/10/26 10:52:34;;;;;;;5.30;3.47;;;;;;;13.45;100.00;99959.91;1704011;84;21078;-60
2022/10/26 10:55:21;;;;;;;5.83;3.30;;;;;;;13.44;100.00;99961.73;1719157;83;21505;-62
2022/10/26 10:58:27;;;;;;;4.70;3.07;;;;;;;13.39;100.00;99958.43;1690573;83;21379;-60
2022/10/26 11:00:54;;;;;;;5.87;3.40;;;;;;;13.38;100.00;99950.28;1703720;84;21081;-62
2022/10/26 11:03:29;;;;;;;5.30;3.23;;;;;;;13.49;100.00;99946.72;1719205;83;21054;-61
2022/10/26 11:06:11;;;;;;;4.27;2.67;;;;;;;13.53;100.00;99957.07;1719123;83;21543;-60
2022/10/26 11:08:53;;;;;;;4.60;2.95;;;;;;;13.54;100.00;99949.50;1711673;82;21595;-61
2022/10/26 11:11:46;;;;;;;4.45;3.00;;;;;;;13.46;100.00;99947.13;1710159;83;21240;-61
2022/10/26 11:14:30;;;;;;;6.80;3.53;;;;;;;13.43;100.00;99946.23;1709676;83;20891;-61
2022/10/26 11:17:09;;;;;;;4.60;2.33;;;;;;;13.47;100.00;99950.04;1710171;83;20958;-60
2022/10/26 11:19:44;;;;;;;5.60;3.13;;;;;;;13.49;100.00;99951.96;1710188;83;20945;-66
2022/10/26 11:22:15;;;;;;;4.10;2.33;;;;;;;13.44;100.00;99947.84;1710253;83;21327;-60
2022/10/26 11:24:48;;;;;;;5.17;2.83;;;;;;;13.31;100.00;99946.09;1710250;83;21116;-60
2022/10/26 11:27:17;;;;;;;4.13;2.43;;;;;;;13.26;100.00;99948.03;1710023;83;20994;-59
2022/10/26 11:30:14;;;;;;;6.07;3.00;;;;;;;13.25;100.00;99945.09;1709364;83;20995;-61
2022/10/26 11:32:45;;;;;;;4.33;2.70;;;;;;;13.24;100.00;99950.04;1710303;83;21124;-60
2022/10/26 11:35:47;;;;;;;4.75;2.77;;;;;;;13.21;100.00;99954.34;1709815;82;21001;-67
2022/10/26 11:38:38;;;;;;;5.07;2.30;;;;;;;13.18;100.00;99946.90;1710133;83;21164;-60
2022/10/26 11:41:45;;;;;;;4.80;2.57;;;;;;;13.13;100.00;99955.37;1709938;83;21891;-61
2022/10/26 11:44:35;;;;;;;8.57;4.57;;;;;;;13.10;100.00;99944.02;1710060;83;21008;-60
2022/10/26 11:47:08;;;;;;;5.33;3.67;;;;;;;13.04;100.00;99940.13;1705863;83;20899;-59